Time;durP1;ratioP1;P1;durP2;ratioP2;P2;SDS_P1;SDS_P2;PMS_P1;PMS_P2;Temp;Humidity;BMP_temperature;BMP_pressure;BME280_temperature;BME280_humidity;BME280_pressure;Samples;Min_cycle;Max_cycle;Signal;HPM_P1;HPM_P2
2022/06/08 00:00:09;;;;;;;6.28;3.97;;;;;;;;;;5024229;28;20510;-61
2022/06/08 00:02:35;;;;;;;6.32;3.65;;;;;;;;;;5023961;28;20487;-61
2022/06/08 00:05:02;;;;;;;6.78;4.03;;;;;;;;;;5023346;28;20187;-61
2022/06/08 00:07:28;;;;;;;9.50;4.25;;;;;;;;;;5023531;28;20057;-61
2022/06/08 00:09:54;;;;;;;6.97;4.35;;;;;;;;;;5024351;28;20041;-61
2022/06/08 00:12:20;;;;;;;6.93;3.85;;;;;;;;;;5023966;28;20384;-61
2022/06/08 00:14:47;;;;;;;7.35;3.85;;;;;;;;;;5023706;28;20053;-61
2022/06/08 00:17:13;;;;;;;5.38;3.28;;;;;;;;;;5024384;28;20049;-61
2022/06/08 00:19:39;;;;;;;8.15;4.10;;;;;;;;;;5023606;28;20099;-61
2022/06/08 00:22:06;;;;;;;8.93;3.92;;;;;;;;;;5023544;28;20057;-61
2022/06/08 00:24:32;;;;;;;11.05;4.38;;;;;;;;;;5023785;28;20038;-61
2022/06/08 00:27:00;;;;;;;6.80;4.22;;;;;;;;;;5024045;28;20557;-61
2022/06/08 00:29:26;;;;;;;11.02;4.60;;;;;;;;;;5023837;28;20047;-61
2022/06/08 00:31:53;;;;;;;6.47;4.25;;;;;;;;;;5023352;28;20686;-61
2022/06/08 00:34:19;;;;;;;11.75;4.10;;;;;;;;;;5022488;28;20498;-61
2022/06/08 00:36:45;;;;;;;8.05;4.05;;;;;;;;;;5024421;28;20132;-61
2022/06/08 00:39:11;;;;;;;6.68;3.50;;;;;;;;;;5023396;28;20044;-61
2022/06/08 00:41:47;;;;;;;7.40;4.03;;;;;;;;;;5023289;28;20052;-61
2022/06/08 00:44:17;;;;;;;9.50;4.10;;;;;;;;;;5023807;28;20048;-61
2022/06/08 00:46:44;;;;;;;9.70;4.07;;;;;;;;;;5023615;28;20076;-61
2022/06/08 00:49:14;;;;;;;8.25;3.72;;;;;;;;;;5022957;28;20194;-61
2022/06/08 00:51:41;;;;;;;7.70;4.47;;;;;;;;;;5022330;28;20476;-61
2022/06/08 00:54:11;;;;;;;7.57;3.95;;;;;;;;;;5023609;28;20076;-61
2022/06/08 00:56:39;;;;;;;8.82;3.83;;;;;;;;;;5023391;28;20431;-61
2022/06/08 00:59:06;;;;;;;9.00;4.18;;;;;;;;;;5023920;28;21551;-61
2022/06/08 01:01:32;;;;;;;8.75;3.92;;;;;;;;;;5022422;28;20451;-61
2022/06/08 01:04:05;;;;;;;5.78;3.90;;;;;;;;;;5022923;28;20052;-61
2022/06/08 01:06:31;;;;;;;6.32;3.65;;;;;;;;;;5022641;28;20058;-61
2022/06/08 01:08:58;;;;;;;6.30;3.90;;;;;;;;;;5023685;28;20055;-61
2022/06/08 01:11:27;;;;;;;6.90;4.03;;;;;;;;;;5069057;23;20710;-61
2022/06/08 01:13:55;;;;;;;5.05;3.25;;;;;;;;;;5083377;28;20400;-61
2022/06/08 01:16:21;;;;;;;6.95;3.70;;;;;;;;;;5083095;28;20118;-61
2022/06/08 01:18:48;;;;;;;6.13;3.92;;;;;;;;;;5077710;28;20048;-61
2022/06/08 01:21:21;;;;;;;5.85;4.10;;;;;;;;;;5083677;28;20400;-61
2022/06/08 01:23:47;;;;;;;8.20;4.15;;;;;;;;;;5083601;28;20112;-61
2022/06/08 01:26:23;;;;;;;8.30;4.78;;;;;;;;;;5083745;28;20032;-61
2022/06/08 01:28:52;;;;;;;8.88;4.45;;;;;;;;;;5083190;28;20036;-61
2022/06/08 01:31:27;;;;;;;8.07;4.72;;;;;;;;;;5083000;28;20032;-61
2022/06/08 01:34:00;;;;;;;10.75;5.47;;;;;;;;;;5082609;28;20083;-61
2022/06/08 01:36:47;;;;;;;17.38;6.07;;;;;;;;;;5083042;28;20502;-61
2022/06/08 01:39:21;;;;;;;12.05;6.57;;;;;;;;;;5083659;28;20612;-61
2022/06/08 01:42:00;;;;;;;14.93;7.05;;;;;;;;;;5080234;28;20447;-61
2022/06/08 01:44:34;;;;;;;14.98;6.57;;;;;;;;;;5064849;28;20043;-62
2022/06/08 01:47:01;;;;;;;12.30;7.25;;;;;;;;;;5062056;28;20154;-61
2022/06/08 01:49:27;;;;;;;11.30;6.20;;;;;;;;;;5081991;28;20051;-61
2022/06/08 01:52:09;;;;;;;10.57;5.88;;;;;;;;;;5083444;28;20044;-61
2022/06/08 01:54:53;;;;;;;10.45;6.07;;;;;;;;;;5082144;28;20040;-61
2022/06/08 01:57:36;;;;;;;12.23;6.72;;;;;;;;;;5080809;28;20579;-61
2022/06/08 02:00:03;;;;;;;11.38;6.85;;;;;;;;;;5082465;28;20044;-61
2022/06/08 02:02:30;;;;;;;9.75;6.00;;;;;;;;;;5083025;28;20036;-61
2022/06/08 02:05:03;;;;;;;13.40;6.93;;;;;;;;;;5082289;28;20050;-61
2022/06/08 02:07:33;;;;;;;12.27;6.90;;;;;;;;;;5079907;28;20036;-61
2022/06/08 02:10:03;;;;;;;9.90;6.70;;;;;;;;;;5080488;28;20043;-61
2022/06/08 02:12:31;;;;;;;12.57;6.95;;;;;;;;;;5082756;28;20054;-61
2022/06/08 02:14:58;;;;;;;11.65;7.38;;;;;;;;;;5085361;28;20047;-61
2022/06/08 02:17:35;;;;;;;13.40;7.55;;;;;;;;;;5086383;28;20066;-61
2022/06/08 02:20:10;;;;;;;12.02;7.20;;;;;;;;;;5085543;28;20036;-61
2022/06/08 02:22:39;;;;;;;14.32;7.07;;;;;;;;;;5086023;28;20556;-61
2022/06/08 02:25:09;;;;;;;15.80;7.28;;;;;;;;;;5086892;28;20036;-61
2022/06/08 02:27:38;;;;;;;12.25;7.68;;;;;;;;;;5082918;28;20032;-61
2022/06/08 02:30:09;;;;;;;12.45;7.68;;;;;;;;;;5068007;28;20050;-61
2022/06/08 02:35:26;;;;;;;11.48;7.38;;;;;;;;;;5085523;28;20044;-62
2022/06/08 02:37:55;;;;;;;14.43;7.18;;;;;;;;;;5082726;28;20040;-62
2022/06/08 02:40:21;;;;;;;;;;;;;;;;;;5086395;28;20493;-61
2022/06/08 02:42:51;;;;;;;12.70;7.47;;;;;;;;;;5067744;28;19920;-61
2022/06/08 02:45:21;;;;;;;13.30;7.95;;;;;;;;;;5085660;28;20188;-61
2022/06/08 02:47:49;;;;;;;16.17;8.40;;;;;;;;;;5085575;28;20044;-61
2022/06/08 02:50:17;;;;;;;17.23;8.82;;;;;;;;;;5085841;28;20040;-62
2022/06/08 02:52:45;;;;;;;14.35;8.25;;;;;;;;;;5086360;28;20101;-61
2022/06/08 02:55:29;;;;;;;13.35;8.45;;;;;;;;;;5086207;28;20039;-61
2022/06/08 02:57:59;;;;;;;16.65;7.60;;;;;;;;;;5085373;28;20388;-61
2022/06/08 03:00:30;;;;;;;16.02;8.38;;;;;;;;;;5084706;28;20048;-62
2022/06/08 03:02:56;;;;;;;13.15;7.95;;;;;;;;;;5085818;28;20072;-61
2022/06/08 03:05:25;;;;;;;12.77;8.65;;;;;;;;;;5084945;28;20044;-62
2022/06/08 03:07:55;;;;;;;13.68;8.43;;;;;;;;;;5085326;28;20114;-61
2022/06/08 03:10:23;;;;;;;15.75;8.43;;;;;;;;;;5085225;28;20087;-62
2022/06/08 03:12:58;;;;;;;12.60;7.80;;;;;;;;;;5085494;28;20051;-61
2022/06/08 03:15:25;;;;;;;16.13;8.63;;;;;;;;;;5083465;28;20042;-61
2022/06/08 03:17:51;;;;;;;13.02;8.10;;;;;;;;;;5085227;28;20473;-61
2022/06/08 03:20:19;;;;;;;13.05;7.90;;;;;;;;;;5066451;28;20046;-62
2022/06/08 03:22:45;;;;;;;14.40;9.20;;;;;;;;;;5085818;28;20040;-62
2022/06/08 03:25:12;;;;;;;14.00;8.73;;;;;;;;;;5084434;28;20473;-62
2022/06/08 03:27:38;;;;;;;16.92;8.57;;;;;;;;;;5085045;28;20048;-61
2022/06/08 03:30:06;;;;;;;17.33;9.23;;;;;;;;;;5081262;28;20067;-61
2022/06/08 03:32:32;;;;;;;16.80;9.10;;;;;;;;;;5065501;28;20048;-61
2022/06/08 03:34:58;;;;;;;17.15;9.05;;;;;;;;;;5084199;28;20036;-61
2022/06/08 03:37:24;;;;;;;17.67;8.00;;;;;;;;;;5085328;28;20604;-61
2022/06/08 03:39:50;;;;;;;17.00;9.98;;;;;;;;;;5084721;28;20147;-62
2022/06/08 03:42:18;;;;;;;19.33;9.85;;;;;;;;;;5085063;28;20090;-61
2022/06/08 03:44:45;;;;;;;14.73;9.50;;;;;;;;;;5085520;28;20093;-61
2022/06/08 03:47:16;;;;;;;16.00;9.23;;;;;;;;;;5084796;28;20051;-61
2022/06/08 03:49:42;;;;;;;16.38;9.68;;;;;;;;;;5083941;28;20051;-62
2022/06/08 03:52:13;;;;;;;16.83;10.18;;;;;;;;;;5084402;28;20040;-61
2022/06/08 03:54:41;;;;;;;15.10;9.43;;;;;;;;;;5084360;28;20048;-61
2022/06/08 03:57:08;;;;;;;17.17;10.30;;;;;;;;;;5084627;28;20337;-61
2022/06/08 03:59:35;;;;;;;18.40;9.85;;;;;;;;;;5084656;28;20039;-62
2022/06/08 04:02:02;;;;;;;17.45;10.43;;;;;;;;;;5050203;28;20135;-61
2022/06/08 04:04:28;;;;;;;16.65;9.63;;;;;;;;;;5083567;28;20040;-62
2022/06/08 04:06:54;;;;;;;17.98;10.60;;;;;;;;;;5084233;28;20516;-61
2022/06/08 04:09:21;;;;;;;21.50;11.50;;;;;;;;;;5084001;28;20028;-62
2022/06/08 04:11:47;;;;;;;19.13;11.23;;;;;;;;;;5084064;28;20105;-61
2022/06/08 04:14:13;;;;;;;17.92;11.27;;;;;;;;;;5084684;28;20047;-61
2022/06/08 04:16:40;;;;;;;18.60;10.18;;;;;;;;;;5080976;28;20048;-61
2022/06/08 04:19:06;;;;;;;22.63;11.88;;;;;;;;;;5083798;28;20040;-61
2022/06/08 04:21:32;;;;;;;20.05;11.50;;;;;;;;;;5083608;28;20043;-62
2022/06/08 04:24:00;;;;;;;24.25;13.02;;;;;;;;;;5084545;28;20029;-61
2022/06/08 04:26:26;;;;;;;24.63;13.07;;;;;;;;;;5079718;28;20040;-62
2022/06/08 04:28:53;;;;;;;28.67;13.40;;;;;;;;;;5083911;28;20054;-62
2022/06/08 04:31:20;;;;;;;24.58;13.35;;;;;;;;;;5083415;28;20062;-62
2022/06/08 04:33:46;;;;;;;22.13;14.25;;;;;;;;;;5083843;28;20040;-61
2022/06/08 04:36:13;;;;;;;29.40;14.18;;;;;;;;;;5083665;28;20044;-62
2022/06/08 04:38:39;;;;;;;30.67;14.48;;;;;;;;;;5083542;28;20039;-62
2022/06/08 04:41:06;;;;;;;25.95;14.45;;;;;;;;;;5084204;28;20070;-62
2022/06/08 04:43:32;;;;;;;26.88;14.65;;;;;;;;;;5083835;28;20082;-62
2022/06/08 04:45:58;;;;;;;25.83;13.88;;;;;;;;;;5082588;28;20040;-62
2022/06/08 04:48:25;;;;;;;31.88;15.27;;;;;;;;;;5082401;28;20051;-62
2022/06/08 04:50:51;;;;;;;25.23;14.85;;;;;;;;;;5065432;28;20419;-62
2022/06/08 04:53:17;;;;;;;23.38;14.88;;;;;;;;;;5083533;28;20123;-61
2022/06/08 04:55:43;;;;;;;29.05;15.77;;;;;;;;;;5084063;28;20044;-61
2022/06/08 04:58:10;;;;;;;26.77;14.40;;;;;;;;;;5084107;28;20036;-61
2022/06/08 05:00:36;;;;;;;31.75;16.35;;;;;;;;;;5083538;28;20040;-62
2022/06/08 05:03:02;;;;;;;30.90;16.08;;;;;;;;;;5078863;28;20171;-61
2022/06/08 05:05:30;;;;;;;30.30;15.95;;;;;;;;;;5082972;28;20401;-61
2022/06/08 05:07:56;;;;;;;24.70;15.10;;;;;;;;;;5083503;28;20048;-62
2022/06/08 05:10:23;;;;;;;28.88;15.27;;;;;;;;;;5083301;28;20194;-63
2022/06/08 05:12:50;;;;;;;31.90;15.88;;;;;;;;;;5083085;28;20047;-62
2022/06/08 05:15:18;;;;;;;29.55;16.52;;;;;;;;;;5082043;28;20047;-62
2022/06/08 05:17:44;;;;;;;29.27;15.77;;;;;;;;;;5076689;28;20048;-62
2022/06/08 05:20:11;;;;;;;28.90;15.88;;;;;;;;;;5067755;28;20075;-62
2022/06/08 05:22:38;;;;;;;30.85;16.52;;;;;;;;;;5071868;28;20505;-62
2022/06/08 05:25:06;;;;;;;28.60;15.32;;;;;;;;;;5071466;28;20267;-61
2022/06/08 05:27:32;;;;;;;30.30;16.60;;;;;;;;;;5064962;28;20045;-61
2022/06/08 05:29:58;;;;;;;31.15;17.02;;;;;;;;;;5077472;28;20834;-61
2022/06/08 05:32:24;;;;;;;33.65;17.05;;;;;;;;;;5082701;28;20062;-60
2022/06/08 05:34:50;;;;;;;32.10;16.38;;;;;;;;;;5082502;28;20040;-60
2022/06/08 05:37:17;;;;;;;32.33;16.42;;;;;;;;;;5083152;28;20045;-60
2022/06/08 05:43:06;;;;;;;30.15;16.08;;;;;;;;;;5074963;28;20122;-62
2022/06/08 05:45:32;;;;;;;34.40;16.83;;;;;;;;;;5070610;28;20033;-62
2022/06/08 05:47:59;;;;;;;29.95;16.60;;;;;;;;;;5065753;28;20076;-62
2022/06/08 05:50:26;;;;;;;25.30;14.88;;;;;;;;;;5068601;28;20486;-63
2022/06/08 05:52:52;;;;;;;30.75;17.05;;;;;;;;;;5077627;28;20043;-62
2022/06/08 05:55:19;;;;;;;31.10;16.67;;;;;;;;;;5086598;28;20040;-62
2022/06/08 05:57:46;;;;;;;26.20;15.75;;;;;;;;;;5087786;28;20157;-62
2022/06/08 06:00:14;;;;;;;31.73;16.20;;;;;;;;;;5068222;28;20086;-62
2022/06/08 06:02:41;;;;;;;33.53;16.70;;;;;;;;;;5086515;28;20040;-62
2022/06/08 06:05:08;;;;;;;30.83;15.70;;;;;;;;;;5085901;28;20043;-62
2022/06/08 06:07:34;;;;;;;24.08;15.02;;;;;;;;;;5085914;28;20040;-62
2022/06/08 06:10:03;;;;;;;29.17;15.07;;;;;;;;;;5085263;28;20697;-62
2022/06/08 06:12:30;;;;;;;24.63;14.98;;;;;;;;;;5086814;28;20675;-62
2022/06/08 06:14:58;;;;;;;29.00;15.43;;;;;;;;;;5085920;28;20761;-62
2022/06/08 06:17:24;;;;;;;21.63;13.57;;;;;;;;;;5086031;28;20040;-62
2022/06/08 06:19:50;;;;;;;24.15;13.27;;;;;;;;;;5085626;28;20040;-62
2022/06/08 06:22:16;;;;;;;24.98;13.00;;;;;;;;;;5086884;28;20062;-62
2022/06/08 06:24:42;;;;;;;23.15;13.45;;;;;;;;;;5086612;28;20505;-62
2022/06/08 06:27:08;;;;;;;22.05;13.00;;;;;;;;;;5085277;28;20051;-62
2022/06/08 06:29:34;;;;;;;22.70;13.13;;;;;;;;;;5086172;28;20044;-62
2022/06/08 06:32:03;;;;;;;25.10;13.07;;;;;;;;;;5085916;28;20032;-62
2022/06/08 06:34:29;;;;;;;23.70;12.90;;;;;;;;;;5085622;28;20036;-62
2022/06/08 06:36:58;;;;;;;25.40;14.30;;;;;;;;;;5067973;28;20036;-63
2022/06/08 06:39:26;;;;;;;22.67;12.95;;;;;;;;;;5085991;28;20040;-62
2022/06/08 06:41:52;;;;;;;24.13;13.23;;;;;;;;;;5086246;28;20573;-63
2022/06/08 06:44:19;;;;;;;25.45;12.90;;;;;;;;;;5085816;28;20521;-62
2022/06/08 06:46:45;;;;;;;20.92;11.40;;;;;;;;;;5086503;28;20040;-62
2022/06/08 06:49:12;;;;;;;21.02;12.25;;;;;;;;;;5084918;28;20032;-62
2022/06/08 06:51:38;;;;;;;24.10;12.90;;;;;;;;;;5085764;28;20405;-62
2022/06/08 06:54:06;;;;;;;24.05;11.52;;;;;;;;;;5086198;28;20044;-63
2022/06/08 06:56:32;;;;;;;20.53;11.00;;;;;;;;;;5081903;28;20040;-62
2022/06/08 06:58:59;;;;;;;19.65;11.18;;;;;;;;;;5085076;28;20485;-62
2022/06/08 07:01:25;;;;;;;18.77;10.15;;;;;;;;;;5085289;28;20078;-62
2022/06/08 07:03:52;;;;;;;19.60;9.35;;;;;;;;;;5084612;28;20068;-62
2022/06/08 07:06:18;;;;;;;19.13;8.80;;;;;;;;;;5085369;28;20127;-63
2022/06/08 07:08:44;;;;;;;15.95;8.55;;;;;;;;;;5085759;28;20044;-62
2022/06/08 07:13:56;;;;;;;16.23;7.63;;;;;;;;;;5084975;28;20044;-62
2022/06/08 07:16:22;;;;;;;13.40;7.03;;;;;;;;;;5085321;28;20044;-62
2022/06/08 07:18:48;;;;;;;15.68;7.30;;;;;;;;;;5084092;28;20031;-63
2022/06/08 07:21:15;;;;;;;10.45;6.07;;;;;;;;;;5085938;28;20094;-62
2022/06/08 07:23:41;;;;;;;12.10;6.50;;;;;;;;;;5085226;28;20035;-62
2022/06/08 07:26:07;;;;;;;13.50;6.05;;;;;;;;;;5085573;28;20297;-63
2022/06/08 07:28:33;;;;;;;16.20;6.70;;;;;;;;;;5084828;28;20036;-62
2022/06/08 07:31:00;;;;;;;14.40;6.13;;;;;;;;;;5084942;28;20032;-62
2022/06/08 07:33:27;;;;;;;7.53;5.07;;;;;;;;;;5084309;28;20039;-63
2022/06/08 07:35:54;;;;;;;11.38;5.93;;;;;;;;;;5085442;28;20036;-63
2022/06/08 07:38:21;;;;;;;13.45;5.60;;;;;;;;;;5066488;28;20097;-63
2022/06/08 07:40:47;;;;;;;15.45;5.97;;;;;;;;;;5085164;28;20489;-63
2022/06/08 07:43:13;;;;;;;11.98;5.10;;;;;;;;;;5085548;28;20043;-62
2022/06/08 07:45:39;;;;;;;10.95;4.85;;;;;;;;;;5084977;28;20043;-62
2022/06/08 07:50:51;;;;;;;8.13;4.03;;;;;;;;;;5084306;28;20044;-63
2022/06/08 07:53:17;;;;;;;7.82;4.10;;;;;;;;;;5080692;28;20039;-63
2022/06/08 07:55:44;;;;;;;6.38;3.95;;;;;;;;;;5085106;28;20036;-62
2022/06/08 07:58:11;;;;;;;6.72;3.50;;;;;;;;;;5066788;28;20098;-63
2022/06/08 08:00:37;;;;;;;6.90;2.90;;;;;;;;;;5084403;28;20584;-62
2022/06/08 08:03:04;;;;;;;5.40;3.40;;;;;;;;;;5083961;28;20054;-63
2022/06/08 08:05:30;;;;;;;6.82;3.28;;;;;;;;;;5066540;28;20477;-63
2022/06/08 08:07:56;;;;;;;7.45;3.05;;;;;;;;;;5084518;28;20158;-62
2022/06/08 08:10:24;;;;;;;7.35;3.05;;;;;;;;;;5083834;28;20079;-62
2022/06/08 08:12:51;;;;;;;8.60;3.40;;;;;;;;;;5084278;28;20142;-62
2022/06/08 08:15:18;;;;;;;4.55;2.63;;;;;;;;;;5084112;28;20036;-63
2022/06/08 08:17:44;;;;;;;5.30;2.75;;;;;;;;;;5065776;28;20040;-62
2022/06/08 08:20:13;;;;;;;4.78;2.58;;;;;;;;;;5084276;28;20031;-62
2022/06/08 08:22:39;;;;;;;4.80;2.63;;;;;;;;;;5083977;28;20055;-63
2022/06/08 08:25:06;;;;;;;7.90;2.20;;;;;;;;;;5065994;28;20040;-62
2022/06/08 08:27:32;;;;;;;3.67;2.25;;;;;;;;;;5083158;28;20489;-62
2022/06/08 08:29:58;;;;;;;3.95;2.50;;;;;;;;;;5084490;28;20532;-63
2022/06/08 08:32:24;;;;;;;3.50;1.85;;;;;;;;;;5082916;28;20043;-64
2022/06/08 08:34:50;;;;;;;11.98;2.67;;;;;;;;;;5084155;28;20040;-63
2022/06/08 08:37:17;;;;;;;4.88;2.20;;;;;;;;;;5084310;28;20184;-62
2022/06/08 08:39:43;;;;;;;8.52;2.28;;;;;;;;;;5084786;28;20032;-62
2022/06/08 08:42:20;;;;;;;5.07;2.25;;;;;;;;;;5065559;28;20044;-63
2022/06/08 08:44:49;;;;;;;4.95;2.65;;;;;;;;;;5084122;28;20085;-62
2022/06/08 08:47:16;;;;;;;4.20;2.50;;;;;;;;;;5084200;28;20036;-62
2022/06/08 08:49:47;;;;;;;9.32;3.67;;;;;;;;;;5083688;28;20236;-62
2022/06/08 08:52:22;;;;;;;7.50;3.13;;;;;;;;;;5084590;28;20036;-63
2022/06/08 08:54:52;;;;;;;6.40;3.42;;;;;;;;;;5065964;28;20082;-63
2022/06/08 08:57:21;;;;;;;8.52;3.55;;;;;;;;;;5082884;28;20047;-63
2022/06/08 08:59:49;;;;;;;7.57;3.80;;;;;;;;;;5083845;28;20126;-62
2022/06/08 09:03:14;;;;;;;7.13;3.70;;;;;;;;;;5084325;28;20110;-63
2022/06/08 09:05:03;;;;;;;8.63;3.88;;;;;;;;;;5083328;28;20040;-63
2022/06/08 09:07:29;;;;;;;8.65;4.25;;;;;;;;;;5083308;28;20039;-63
2022/06/08 09:09:56;;;;;;;12.95;4.43;;;;;;;;;;5082911;28;20036;-62
2022/06/08 09:12:22;;;;;;;7.28;4.63;;;;;;;;;;5083380;28;20040;-63
2022/06/08 09:14:51;;;;;;;6.55;4.45;;;;;;;;;;5083460;28;20036;-63
2022/06/08 09:17:44;;;;;;;5.82;4.28;;;;;;;;;;5082832;28;20047;-63
2022/06/08 09:20:30;;;;;;;7.72;4.00;;;;;;;;;;5083162;28;20102;-63
2022/06/08 09:22:58;;;;;;;5.30;3.65;;;;;;;;;;5084583;28;20051;-63
2022/06/08 09:25:26;;;;;;;7.30;3.47;;;;;;;;;;5087267;28;20118;-63
2022/06/08 09:27:53;;;;;;;6.50;3.53;;;;;;;;;;5087958;28;20066;-63
2022/06/08 09:30:20;;;;;;;5.88;3.15;;;;;;;;;;5087515;28;20142;-63
2022/06/08 09:32:49;;;;;;;4.30;2.55;;;;;;;;;;5086506;28;20040;-63
2022/06/08 09:35:15;;;;;;;8.40;3.38;;;;;;;;;;5087724;28;20501;-63
2022/06/08 09:37:41;;;;;;;5.45;2.75;;;;;;;;;;5087420;28;20055;-63
2022/06/08 09:40:36;;;;;;;5.97;2.53;;;;;;;;;;5087762;28;20516;-63
2022/06/08 09:43:02;;;;;;;6.47;3.25;;;;;;;;;;5087004;28;20040;-63
2022/06/08 09:45:29;;;;;;;6.85;3.05;;;;;;;;;;5086661;28;20055;-63
2022/06/08 09:51:26;;;;;;;7.30;3.80;;;;;;;;;;5084777;28;20113;-63
2022/06/08 09:54:00;;;;;;;6.50;4.07;;;;;;;;;;5087063;28;20047;-63
2022/06/08 09:56:26;;;;;;;9.50;3.92;;;;;;;;;;5086883;28;20460;-63
2022/06/08 09:58:57;;;;;;;15.05;4.55;;;;;;;;;;5086723;28;20039;-63
2022/06/08 10:01:38;;;;;;;7.10;3.58;;;;;;;;;;5086324;28;20047;-63
2022/06/08 10:04:07;;;;;;;7.53;3.78;;;;;;;;;;5086229;28;20040;-63
2022/06/08 10:06:51;;;;;;;7.45;3.92;;;;;;;;;;5086369;28;20105;-63
2022/06/08 10:09:31;;;;;;;7.90;4.03;;;;;;;;;;5086543;28;20040;-63
2022/06/08 10:11:58;;;;;;;5.82;3.05;;;;;;;;;;5086658;28;20122;-63
2022/06/08 10:14:25;;;;;;;7.63;2.72;;;;;;;;;;5086822;28;20127;-63
2022/06/08 10:16:54;;;;;;;6.72;2.72;;;;;;;;;;5086625;28;20459;-63
2022/06/08 10:19:24;;;;;;;6.00;3.40;;;;;;;;;;5085723;28;20692;-63
2022/06/08 10:21:51;;;;;;;5.80;3.03;;;;;;;;;;5087155;28;20143;-63
2022/06/08 10:24:31;;;;;;;5.20;3.10;;;;;;;;;;5082585;28;20052;-63
2022/06/08 10:27:02;;;;;;;6.72;2.63;;;;;;;;;;5084189;28;20044;-63
2022/06/08 10:29:35;;;;;;;7.15;2.60;;;;;;;;;;5068284;28;20552;-63
2022/06/08 10:32:14;;;;;;;6.95;2.80;;;;;;;;;;5085870;28;20048;-62
2022/06/08 10:34:41;;;;;;;6.97;2.72;;;;;;;;;;5084340;28;20040;-63
2022/06/08 10:37:16;;;;;;;6.03;2.38;;;;;;;;;;5086491;28;20044;-63
2022/06/08 10:39:43;;;;;;;3.92;2.13;;;;;;;;;;5086370;28;20047;-63
2022/06/08 10:44:59;;;;;;;6.53;2.40;;;;;;;;;;5086113;28;20708;-63
2022/06/08 10:47:25;;;;;;;8.18;4.00;;;;;;;;;;5084761;28;20036;-63
2022/06/08 10:49:54;;;;;;;10.55;3.20;;;;;;;;;;5086109;28;20185;-63
2022/06/08 10:52:21;;;;;;;6.45;2.70;;;;;;;;;;5085921;28;20040;-63
2022/06/08 10:54:55;;;;;;;6.55;2.65;;;;;;;;;;5082902;28;20040;-63
2022/06/08 10:57:37;;;;;;;6.32;2.95;;;;;;;;;;5085918;28;20051;-63
2022/06/08 11:00:16;;;;;;;5.95;2.88;;;;;;;;;;5085979;28;20040;-63
2022/06/08 11:02:44;;;;;;;9.45;2.95;;;;;;;;;;5085269;28;20182;-63
2022/06/08 11:05:13;;;;;;;8.23;3.22;;;;;;;;;;5085715;28;20043;-63
2022/06/08 11:07:58;;;;;;;10.38;3.10;;;;;;;;;;5081751;28;20456;-63
2022/06/08 11:10:40;;;;;;;7.60;3.53;;;;;;;;;;5083003;28;20055;-63
2022/06/08 11:13:14;;;;;;;8.93;3.40;;;;;;;;;;5085580;28;20055;-63
2022/06/08 11:15:42;;;;;;;8.20;3.50;;;;;;;;;;5077352;28;20044;-63
2022/06/08 11:18:13;;;;;;;7.90;3.83;;;;;;;;;;5071927;28;20082;-63
2022/06/08 11:20:45;;;;;;;9.07;3.70;;;;;;;;;;5080176;28;20035;-62
2022/06/08 11:23:15;;;;;;;4.97;3.30;;;;;;;;;;5082972;28;20047;-62
2022/06/08 11:25:49;;;;;;;8.82;3.67;;;;;;;;;;5081985;28;20121;-63
2022/06/08 11:28:24;;;;;;;10.00;3.97;;;;;;;;;;5078951;28;20489;-62
2022/06/08 11:30:51;;;;;;;9.10;3.67;;;;;;;;;;5078785;28;20071;-63
2022/06/08 11:33:19;;;;;;;8.70;3.67;;;;;;;;;;5081612;28;20094;-63
2022/06/08 11:35:48;;;;;;;5.45;2.80;;;;;;;;;;5080474;28;20729;-63
2022/06/08 11:38:15;;;;;;;11.55;4.72;;;;;;;;;;5081921;28;20048;-63
2022/06/08 11:40:42;;;;;;;12.43;3.80;;;;;;;;;;5080795;28;20044;-63
2022/06/08 11:43:15;;;;;;;10.07;3.67;;;;;;;;;;5081037;28;20048;-64
2022/06/08 11:45:44;;;;;;;6.25;3.53;;;;;;;;;;5062592;28;20124;-63
2022/06/08 11:48:17;;;;;;;7.97;3.08;;;;;;;;;;5080715;28;20044;-63
2022/06/08 11:50:51;;;;;;;8.93;3.60;;;;;;;;;;5082169;28;20044;-63
2022/06/08 11:53:26;;;;;;;8.80;2.00;;;;;;;;;;5063544;28;20086;-64
2022/06/08 11:55:58;;;;;;;9.32;1.25;;;;;;;;;;5082151;28;20044;-63
2022/06/08 11:58:28;;;;;;;2.60;0.77;;;;;;;;;;5081981;28;20501;-64
2022/06/08 12:00:57;;;;;;;3.80;0.80;;;;;;;;;;5082232;28;20048;-63
2022/06/08 12:03:25;;;;;;;12.80;1.50;;;;;;;;;;5080760;28;20040;-64
2022/06/08 12:05:52;;;;;;;16.47;1.93;;;;;;;;;;5082482;28;20043;-63
2022/06/08 12:08:23;;;;;;;11.55;2.15;;;;;;;;;;5081549;28;20754;-63
2022/06/08 12:10:49;;;;;;;12.43;1.55;;;;;;;;;;5082137;28;20062;-63
2022/06/08 12:13:18;;;;;;;6.80;1.42;;;;;;;;;;5064321;28;20048;-63
2022/06/08 12:15:48;;;;;;;8.60;1.70;;;;;;;;;;5081787;28;20044;-63
2022/06/08 12:18:25;;;;;;;7.50;1.52;;;;;;;;;;5081789;28;20042;-63
2022/06/08 12:21:02;;;;;;;8.90;1.60;;;;;;;;;;5063801;28;20147;-63
2022/06/08 12:23:37;;;;;;;9.90;1.90;;;;;;;;;;5080873;28;20159;-63
2022/06/08 12:26:03;;;;;;;6.82;1.80;;;;;;;;;;5080650;28;20047;-63
2022/06/08 12:28:30;;;;;;;4.35;1.65;;;;;;;;;;5062949;28;20139;-62
2022/06/08 12:30:58;;;;;;;9.75;2.22;;;;;;;;;;5081321;28;20067;-63
2022/06/08 12:33:26;;;;;;;8.95;2.70;;;;;;;;;;5079548;28;20040;-63
2022/06/08 12:35:56;;;;;;;14.48;2.70;;;;;;;;;;5081471;28;20470;-63
2022/06/08 12:38:24;;;;;;;6.22;2.28;;;;;;;;;;5081124;28;20302;-63
2022/06/08 12:41:01;;;;;;;4.57;2.00;;;;;;;;;;5080746;28;20043;-63
2022/06/08 12:43:39;;;;;;;4.65;2.35;;;;;;;;;;5081312;28;20493;-63
2022/06/08 12:46:15;;;;;;;5.25;1.90;;;;;;;;;;5080191;28;20048;-58
2022/06/08 12:48:44;;;;;;;8.02;2.90;;;;;;;;;;5080103;28;20054;-60
2022/06/08 12:51:23;;;;;;;9.00;2.10;;;;;;;;;;5080881;28;20729;-60
2022/06/08 12:53:50;;;;;;;7.72;2.25;;;;;;;;;;5080901;28;20079;-60
2022/06/08 12:56:22;;;;;;;6.15;2.65;;;;;;;;;;5075798;28;20067;-62
2022/06/08 12:58:49;;;;;;;9.00;3.30;;;;;;;;;;5077809;28;20119;-62
2022/06/08 13:01:16;;;;;;;8.13;3.70;;;;;;;;;;5082465;28;20065;-62
2022/06/08 13:03:43;;;;;;;8.48;4.13;;;;;;;;;;5083251;28;20058;-62
2022/06/08 13:06:10;;;;;;;10.43;4.93;;;;;;;;;;5082698;28;20070;-62
2022/06/08 13:08:37;;;;;;;9.38;4.93;;;;;;;;;;5082049;28;20040;-62
2022/06/08 13:11:05;;;;;;;11.63;5.75;;;;;;;;;;5082800;28;20429;-61
2022/06/08 13:13:33;;;;;;;11.60;5.40;;;;;;;;;;5082665;28;20448;-62
2022/06/08 13:16:01;;;;;;;13.13;6.30;;;;;;;;;;5083792;28;20032;-62
2022/06/08 13:18:28;;;;;;;14.13;5.90;;;;;;;;;;5082597;28;20793;-62
2022/06/08 13:20:55;;;;;;;9.10;6.00;;;;;;;;;;5082882;28;20531;-62
2022/06/08 13:23:22;;;;;;;12.65;6.40;;;;;;;;;;5082839;28;20035;-62
2022/06/08 13:25:49;;;;;;;12.50;6.47;;;;;;;;;;5082713;28;20040;-61
2022/06/08 13:28:17;;;;;;;8.57;5.78;;;;;;;;;;5080262;28;20048;-61
2022/06/08 13:30:44;;;;;;;13.95;6.30;;;;;;;;;;5083756;28;20044;-62
2022/06/08 13:33:56;;;;;;;10.45;5.32;;;;;;;;;;5081981;28;20050;-62
2022/06/08 13:35:59;;;;;;;13.40;4.70;;;;;;;;;;5079687;28;20519;-62
2022/06/08 13:38:25;;;;;;;8.40;4.55;;;;;;;;;;5082548;28;20131;-61
2022/06/08 13:40:53;;;;;;;9.30;3.67;;;;;;;;;;5083125;28;20045;-62
2022/06/08 13:43:19;;;;;;;8.17;4.17;;;;;;;;;;5082057;28;20140;-62
2022/06/08 13:45:46;;;;;;;8.55;3.53;;;;;;;;;;5082195;28;20071;-62
2022/06/08 13:48:14;;;;;;;12.20;4.97;;;;;;;;;;5079461;28;20067;-62
2022/06/08 13:50:42;;;;;;;8.75;3.70;;;;;;;;;;5081540;28;20047;-61
2022/06/08 13:53:12;;;;;;;8.40;3.88;;;;;;;;;;5082275;28;20044;-62
2022/06/08 13:55:40;;;;;;;11.50;4.00;;;;;;;;;;5083303;28;20036;-62
2022/06/08 13:58:09;;;;;;;7.18;4.05;;;;;;;;;;5080065;28;20089;-62
2022/06/08 14:00:35;;;;;;;;;;;;;;;;;;5064243;28;20132;-61
2022/06/08 14:03:04;;;;;;;7.07;3.70;;;;;;;;;;5081494;28;19924;-61
2022/06/08 14:13:49;;;;;;;9.52;4.03;;;;;;;;;;5083155;28;20055;-62
2022/06/08 14:16:16;;;;;;;16.15;4.65;;;;;;;;;;5087099;28;20039;-62
2022/06/08 14:18:45;;;;;;;11.30;4.10;;;;;;;;;;5086289;28;20043;-62
2022/06/08 14:21:12;;;;;;;11.45;4.30;;;;;;;;;;5086144;28;20088;-61
2022/06/08 14:23:38;;;;;;;10.68;3.85;;;;;;;;;;5083117;28;20372;-61
2022/06/08 14:26:05;;;;;;;10.38;4.10;;;;;;;;;;5086277;28;20160;-62
2022/06/08 14:28:31;;;;;;;9.25;4.00;;;;;;;;;;5084408;28;20047;-62
2022/06/08 14:30:58;;;;;;;9.02;4.35;;;;;;;;;;5086162;28;20123;-61
2022/06/08 14:33:26;;;;;;;8.27;4.30;;;;;;;;;;5084951;28;20123;-62
2022/06/08 14:35:53;;;;;;;7.70;3.40;;;;;;;;;;5086335;28;20047;-62
2022/06/08 14:38:22;;;;;;;11.00;4.18;;;;;;;;;;5085554;28;20067;-62
2022/06/08 14:40:48;;;;;;;;;;;;;;;;;;5086722;28;20048;-62
2022/06/08 14:43:14;;;;;;;9.18;4.55;;;;;;;;;;5086515;28;19920;-62
2022/06/08 14:45:41;;;;;;;9.40;5.00;;;;;;;;;;5086042;28;20044;-62
2022/06/08 14:48:15;;;;;;;10.63;4.68;;;;;;;;;;5085439;28;20055;-62
2022/06/08 14:50:44;;;;;;;12.43;5.15;;;;;;;;;;5085735;28;20052;-62
2022/06/08 14:53:11;;;;;;;15.70;5.00;;;;;;;;;;5086111;28;20492;-62
2022/06/08 14:58:23;;;;;;;14.02;5.22;;;;;;;;;;5086003;28;20122;-62
2022/06/08 15:00:50;;;;;;;17.90;5.40;;;;;;;;;;5086189;28;20079;-62
2022/06/08 15:03:17;;;;;;;17.20;5.70;;;;;;;;;;5085219;28;20067;-62
2022/06/08 15:05:44;;;;;;;14.02;5.75;;;;;;;;;;5086658;28;20051;-62
2022/06/08 15:08:10;;;;;;;17.30;5.20;;;;;;;;;;5085264;28;20050;-62
2022/06/08 15:11:58;;;;;;;12.18;4.47;;;;;;;;;;5085516;28;20304;-62